Time;durP1;ratioP1;P1;durP2;ratioP2;P2;SDS_P1;SDS_P2;PMS_P1;PMS_P2;Temp;Humidity;BMP_temperature;BMP_pressure;BME280_temperature;BME280_humidity;BME280_pressure;Samples;Min_cycle;Max_cycle;Signal;HPM_P1;HPM_P2
2023/05/02 00:02:22;;;;;;;;;;;;;;;10.67;33.75;100514.56;5093570;28;19916;-64
2023/05/02 00:04:47;;;;;;;;;;;;;;;10.66;33.96;100513.75;5091965;28;19994;-63
2023/05/02 00:07:12;;;;;;;;;;;;;;;10.67;33.89;100515.41;5093609;28;19919;-64
2023/05/02 00:09:37;;;;;;;;;;;;;;;10.59;33.66;100512.84;5093213;28;20392;-64
2023/05/02 00:12:03;;;;;;;;;;;;;;;10.58;33.72;100516.56;5093398;28;19918;-64
2023/05/02 00:14:29;;;;;;;;;;;;;;;10.60;34.17;100520.69;5092633;28;19923;-64
2023/05/02 00:16:54;;;;;;;;;;;;;;;10.54;34.46;100523.34;5092795;28;19923;-63
2023/05/02 00:19:19;;;;;;;;;;;;;;;10.48;33.55;100516.88;5093230;28;21055;-64
2023/05/02 00:21:50;;;;;;;;;;;;;;;10.45;33.70;100517.25;5093240;28;19931;-63
2023/05/02 00:24:18;;;;;;;;;;;;;;;10.39;33.71;100523.41;5092191;28;19934;-64
2023/05/02 00:26:44;;;;;;;;;;;;;;;10.37;33.72;100526.25;5092798;28;20002;-65
2023/05/02 00:29:09;;;;;;;;;;;;;;;10.25;34.33;100536.66;5092800;28;20027;-65
2023/05/02 00:31:35;;;;;;;;;;;;;;;10.11;34.85;100536.69;5092116;28;19935;-64
2023/05/02 00:34:00;;;;;;;;;;;;;;;10.10;34.33;100540.38;5092093;28;20865;-64
2023/05/02 00:36:26;;;;;;;;;;;;;;;10.11;34.17;100532.16;5092060;28;20041;-64
2023/05/02 00:38:51;;;;;;;;;;;;;;;10.16;34.64;100542.28;5090735;28;20003;-64
2023/05/02 00:41:17;;;;;;;;;;;;;;;10.12;34.36;100547.22;5092264;28;19924;-65
2023/05/02 00:43:42;;;;;;;;;;;;;;;10.10;34.20;100551.94;5090532;28;19912;-64
2023/05/02 00:46:08;;;;;;;;;;;;;;;10.05;33.71;100546.31;5091689;28;19912;-64
2023/05/02 00:48:33;;;;;;;;;;;;;;;10.00;34.36;100554.09;5092097;28;20341;-63
2023/05/02 00:51:01;;;;;;;;;;;;;;;10.00;34.09;100546.88;5092207;28;19951;-64
2023/05/02 00:53:26;;;;;;;;;;;;;;;10.00;34.06;100552.25;5091721;28;19963;-64
2023/05/02 00:55:53;;;;;;;;;;;;;;;9.99;34.33;100557.78;5092402;28;20318;-64
2023/05/02 00:58:20;;;;;;;;;;;;;;;9.92;34.29;100562.22;5092379;28;20675;-64
2023/05/02 01:00:54;;;;;;;;;;;;;;;9.87;34.27;100560.94;5092336;28;19916;-64
2023/05/02 01:03:27;;;;;;;;;;;;;;;9.83;34.36;100562.34;5092465;28;20429;-64
2023/05/02 01:05:58;;;;;;;;;;;;;;;9.73;34.09;100577.88;5092356;28;19943;-65
2023/05/02 01:08:28;;;;;;;;;;;;;;;9.67;34.71;100586.66;5092262;28;20037;-64
2023/05/02 01:10:59;;;;;;;;;;;;;;;9.63;34.49;100582.69;5091670;28;19912;-64
2023/05/02 01:13:27;;;;;;;;;;;;;;;9.57;34.65;100591.50;5091944;28;19928;-64
2023/05/02 01:15:54;;;;;;;;;;;;;;;9.57;34.70;100591.50;5091280;28;19916;-65
2023/05/02 01:18:22;;;;;;;;;;;;;;;9.48;34.80;100586.19;5091869;28;19916;-64
2023/05/02 01:20:51;;;;;;;;;;;;;;;9.44;34.76;100592.94;5091324;28;19916;-64
2023/05/02 01:23:52;;;;;;;;;;;;;;;9.37;34.68;100593.88;5090852;28;19992;-64
2023/05/02 01:26:31;;;;;;;;;;;;;;;9.28;35.39;100601.16;5018916;28;19917;-64
2023/05/02 01:28:56;;;;;;;;;;;;;;;9.22;35.80;100604.56;5081773;28;20003;-64
2023/05/02 01:31:23;;;;;;;;;;;;;;;9.17;35.63;100609.63;5091660;28;19919;-63
2023/05/02 01:33:50;;;;;;;;;;;;;;;9.16;35.43;100613.34;5091588;28;19912;-64
2023/05/02 01:36:18;;;;;;;;;;;;;;;9.15;35.55;100608.97;5091294;28;19912;-64
2023/05/02 01:38:43;;;;;;;;;;;;;;;9.12;35.42;100612.84;5091044;28;20371;-64
2023/05/02 01:41:09;;;;;;;;;;;;;;;9.06;35.53;100617.09;5091578;28;19993;-63
2023/05/02 01:43:37;;;;;;;;;;;;;;;8.96;35.81;100618.34;5091097;28;19952;-64
2023/05/02 01:46:03;;;;;;;;;;;;;;;9.00;35.68;100616.97;5090811;28;20365;-63
2023/05/02 01:48:29;;;;;;;;;;;;;;;9.02;35.58;100626.47;5091676;28;19920;-63
2023/05/02 01:50:56;;;;;;;;;;;;;;;8.98;36.31;100627.84;5091747;28;19912;-64
2023/05/02 01:53:23;;;;;;;;;;;;;;;8.89;35.70;100620.88;5091059;28;19951;-63
2023/05/02 01:55:48;;;;;;;;;;;;;;;8.81;35.47;100627.13;5091883;28;19919;-64
2023/05/02 01:58:15;;;;;;;;;;;;;;;8.71;36.51;100629.19;5091733;28;20335;-63
2023/05/02 02:00:43;;;;;;;;;;;;;;;8.65;35.71;100636.09;5090884;28;19920;-64
2023/05/02 02:03:09;;;;;;;;;;;;;;;8.63;35.80;100629.25;5091449;28;19919;-65
2023/05/02 02:05:35;;;;;;;;;;;;;;;8.57;36.33;100628.13;5091532;28;19912;-64
2023/05/02 02:08:01;;;;;;;;;;;;;;;8.49;36.01;100638.91;5090609;28;19955;-64
2023/05/02 02:10:29;;;;;;;;;;;;;;;8.43;36.91;100627.06;5091909;28;19986;-64
2023/05/02 02:12:59;;;;;;;;;;;;;;;8.42;37.05;100641.44;5090323;28;19920;-64
2023/05/02 02:15:27;;;;;;;;;;;;;;;8.45;36.60;100642.91;5091320;28;20007;-64
2023/05/02 02:17:58;;;;;;;;;;;;;;;8.56;36.70;100634.47;5090738;28;20008;-64
2023/05/02 02:20:24;;;;;;;;;;;;;;;8.70;36.12;100641.75;5091404;28;19954;-64
2023/05/02 02:22:52;;;;;;;;;;;;;;;8.68;34.98;100642.97;5089015;28;19928;-64
2023/05/02 02:25:17;;;;;;;;;;;;;;;8.72;34.28;100645.09;5089888;28;19995;-64
2023/05/02 02:27:43;;;;;;;;;;;;;;;8.77;34.87;100649.94;5091619;28;20335;-64
2023/05/02 02:30:09;;;;;;;;;;;;;;;8.85;34.28;100651.72;5091202;28;19920;-63
2023/05/02 02:32:34;;;;;;;;;;;;;;;8.85;34.58;100662.44;5091528;28;19994;-64
2023/05/02 02:35:00;;;;;;;;;;;;;;;8.80;34.18;100664.81;5091281;28;19912;-63
2023/05/02 02:37:29;;;;;;;;;;;;;;;8.74;33.98;100661.00;5090483;28;20002;-63
2023/05/02 02:40:02;;;;;;;;;;;;;;;8.70;34.22;100665.03;5092332;28;19962;-63
2023/05/02 02:42:28;;;;;;;;;;;;;;;8.65;34.22;100654.84;5093091;28;19924;-63
2023/05/02 02:45:12;;;;;;;;;;;;;;;8.61;34.24;100664.25;5091802;28;19916;-63
2023/05/02 02:47:42;;;;;;;;;;;;;;;8.55;35.18;100672.16;5090966;28;20276;-62
2023/05/02 02:50:10;;;;;;;;;;;;;;;8.59;34.49;100670.78;5089674;28;19911;-64
2023/05/02 02:52:36;;;;;;;;;;;;;;;8.53;34.21;100677.69;5091027;28;19916;-64
2023/05/02 02:55:28;;;;;;;;;;;;;;;8.45;34.56;100670.53;5094353;28;19919;-64
2023/05/02 02:57:59;;;;;;;;;;;;;;;8.39;35.33;100675.69;5094194;28;20376;-63
2023/05/02 03:00:26;;;;;;;;;;;;;;;8.31;35.37;100677.41;5094206;28;19912;-63
2023/05/02 03:02:52;;;;;;;;;;;;;;;8.27;35.38;100681.44;5093133;28;20368;-64
2023/05/02 03:05:18;;;;;;;;;;;;;;;8.22;35.93;100683.78;5093652;28;20368;-64
2023/05/02 03:07:43;;;;;;;;;;;;;;;8.16;35.03;100689.84;5093296;28;19991;-64
2023/05/02 03:10:09;;;;;;;;;;;;;;;8.05;35.18;100682.19;5094729;28;19943;-63
2023/05/02 03:12:38;;;;;;;;;;;;;;;8.00;35.05;100689.88;5093720;28;20352;-64
2023/05/02 03:15:06;;;;;;;;;;;;;;;7.92;35.53;100691.56;5095062;28;19919;-64
2023/05/02 03:17:32;;;;;;;;;;;;;;;7.95;37.17;100693.09;5094615;28;20037;-63
2023/05/02 03:19:57;;;;;;;;;;;;;;;7.94;36.30;100692.22;5093512;28;20012;-63
2023/05/02 03:22:22;;;;;;;;;;;;;;;7.91;35.61;100699.75;5093245;28;19966;-64
2023/05/02 03:24:48;;;;;;;;;;;;;;;7.82;35.18;100700.78;5094454;28;19912;-63
2023/05/02 03:27:13;;;;;;;;;;;;;;;7.64;35.63;100704.47;5093935;28;19977;-63
2023/05/02 03:29:38;;;;;;;;;;;;;;;7.59;36.29;100703.31;5093770;28;19912;-64
2023/05/02 03:32:04;;;;;;;;;;;;;;;7.67;36.30;100708.66;5092441;28;19912;-64
2023/05/02 03:34:29;;;;;;;;;;;;;;;7.71;35.78;100712.69;5093592;28;20011;-65
2023/05/02 03:36:55;;;;;;;;;;;;;;;7.78;36.23;100716.31;5092792;28;20019;-64
2023/05/02 03:39:20;;;;;;;;;;;;;;;7.88;36.83;100722.34;5093709;28;19920;-64
2023/05/02 03:41:46;;;;;;;;;;;;;;;7.89;36.15;100721.34;5093524;28;19920;-63
2023/05/02 03:44:11;;;;;;;;;;;;;;;7.95;36.08;100727.84;5093717;28;19912;-63
2023/05/02 03:46:37;;;;;;;;;;;;;;;8.04;35.91;100737.53;5093442;28;20543;-64
2023/05/02 03:49:02;;;;;;;;;;;;;;;8.10;36.01;100734.16;5093763;28;19989;-63
2023/05/02 03:51:27;;;;;;;;;;;;;;;8.18;36.14;100737.81;5093494;28;19912;-64
2023/05/02 03:53:53;;;;;;;;;;;;;;;8.18;35.69;100735.97;5093509;28;20493;-62
2023/05/02 03:56:19;;;;;;;;;;;;;;;8.14;36.41;100740.84;5092253;28;19912;-63
2023/05/02 03:58:45;;;;;;;;;;;;;;;8.10;35.45;100738.69;5093358;28;20006;-64
2023/05/02 04:01:14;;;;;;;;;;;;;;;8.00;35.38;100738.03;5091740;28;19920;-63
2023/05/02 04:03:40;;;;;;;;;;;;;;;7.96;35.83;100748.22;5092894;28;19912;-64
2023/05/02 04:06:05;;;;;;;;;;;;;;;7.95;35.98;100741.22;5092544;28;20475;-64
2023/05/02 04:08:31;;;;;;;;;;;;;;;7.95;36.09;100744.72;5092819;28;20015;-64
2023/05/02 04:10:57;;;;;;;;;;;;;;;8.02;36.31;100744.84;5093415;28;20015;-63
2023/05/02 04:13:23;;;;;;;;;;;;;;;8.06;35.87;100748.03;5093013;28;20026;-63
2023/05/02 04:15:48;;;;;;;;;;;;;;;8.05;35.73;100743.69;5093160;28;19938;-64
2023/05/02 04:18:14;;;;;;;;;;;;;;;7.87;35.90;100746.56;5092701;28;19935;-63
2023/05/02 04:20:41;;;;;;;;;;;;;;;7.95;36.15;100755.41;5092865;28;20358;-64
2023/05/02 04:23:07;;;;;;;;;;;;;;;8.03;35.87;100751.88;5092090;28;19919;-63
2023/05/02 04:25:32;;;;;;;;;;;;;;;8.06;35.96;100745.34;5093188;28;19912;-62
2023/05/02 04:27:57;;;;;;;;;;;;;;;8.02;35.83;100749.38;5092914;28;19912;-64
2023/05/02 04:30:22;;;;;;;;;;;;;;;8.10;35.58;100752.88;5092844;28;19912;-64
2023/05/02 04:32:47;;;;;;;;;;;;;;;8.13;35.57;100754.38;5092825;28;19950;-63
2023/05/02 04:35:14;;;;;;;;;;;;;;;8.16;35.90;100754.03;5092610;28;20586;-64
2023/05/02 04:37:39;;;;;;;;;;;;;;;8.24;36.56;100753.19;5092075;28;19912;-63
2023/05/02 04:40:07;;;;;;;;;;;;;;;8.25;35.94;100754.88;5091166;28;19939;-64
2023/05/02 04:42:32;;;;;;;;;;;;;;;8.25;36.32;100752.19;5090886;28;19922;-63
2023/05/02 04:44:57;;;;;;;;;;;;;;;8.23;36.55;100755.03;5092699;28;19994;-64
2023/05/02 04:47:22;;;;;;;;;;;;;;;8.28;36.53;100765.22;5092549;28;19927;-63
2023/05/02 04:49:48;;;;;;;;;;;;;;;8.29;36.49;100767.72;5092533;28;20428;-63
2023/05/02 04:52:13;;;;;;;;;;;;;;;8.38;36.48;100770.38;5092337;28;19912;-64
2023/05/02 04:54:39;;;;;;;;;;;;;;;8.40;36.02;100771.03;5092402;28;20030;-63
2023/05/02 04:57:06;;;;;;;;;;;;;;;8.45;36.31;100763.34;5091303;28;20346;-64
2023/05/02 04:59:32;;;;;;;;;;;;;;;8.49;35.86;100773.56;5091991;28;19931;-64
2023/05/02 05:01:57;;;;;;;;;;;;;;;8.58;35.61;100770.84;5090917;28;20330;-64
2023/05/02 05:04:23;;;;;;;;;;;;;;;8.52;35.35;100775.03;5092666;28;19943;-64
2023/05/02 05:06:49;;;;;;;;;;;;;;;8.60;34.59;100775.03;5092272;28;19946;-64
2023/05/02 05:09:14;;;;;;;;;;;;;;;8.69;34.28;100782.03;5092520;28;19955;-63
2023/05/02 05:11:41;;;;;;;;;;;;;;;8.84;33.87;100774.09;5092227;28;19965;-63
2023/05/02 05:14:07;;;;;;;;;;;;;;;8.84;33.93;100775.91;5091581;28;19928;-64
2023/05/02 05:16:32;;;;;;;;;;;;;;;8.85;34.47;100774.91;5094731;28;20540;-63
2023/05/02 05:18:58;;;;;;;;;;;;;;;8.88;33.86;100777.25;5093425;28;20032;-64
2023/05/02 05:21:23;;;;;;;;;;;;;;;8.90;34.38;100775.22;5091886;28;20279;-64
2023/05/02 05:23:48;;;;;;;;;;;;;;;8.96;34.88;100782.56;5091815;28;20390;-63
2023/05/02 05:26:15;;;;;;;;;;;;;;;8.89;35.10;100773.53;5092309;28;19912;-63
2023/05/02 05:28:40;;;;;;;;;;;;;;;8.99;35.01;100779.53;5092634;28;19912;-64
2023/05/02 05:31:06;;;;;;;;;;;;;;;9.13;33.97;100788.66;5092818;28;20403;-64
2023/05/02 05:33:32;;;;;;;;;;;;;;;9.24;34.33;100798.97;5091901;28;20433;-64
2023/05/02 05:36:02;;;;;;;;;;;;;;;9.27;33.30;100795.94;5092001;28;20377;-63
2023/05/02 05:38:27;;;;;;;;;;;;;;;9.31;33.43;100799.13;5090817;28;20395;-64
2023/05/02 05:40:52;;;;;;;;;;;;;;;9.40;33.07;100806.09;5091941;28;19913;-62
2023/05/02 05:43:18;;;;;;;;;;;;;;;9.45;32.45;100802.88;5091186;28;20022;-63
2023/05/02 05:45:44;;;;;;;;;;;;;;;9.54;33.35;100799.13;5091316;28;19919;-62
2023/05/02 05:48:09;;;;;;;;;;;;;;;9.66;32.73;100795.00;5091255;28;20336;-63
2023/05/02 05:50:34;;;;;;;;;;;;;;;9.67;32.65;100795.84;5091379;28;19918;-63
2023/05/02 05:52:59;;;;;;;;;;;;;;;9.64;32.94;100797.03;5090924;28;20007;-64
2023/05/02 05:55:26;;;;;;;;;;;;;;;9.66;31.83;100800.38;5091912;28;19913;-63
2023/05/02 05:57:51;;;;;;;;;;;;;;;9.73;32.42;100805.84;5090871;28;20026;-63
2023/05/02 06:00:17;;;;;;;;;;;;;;;9.74;32.03;100804.00;5091550;28;19938;-62
2023/05/02 06:02:42;;;;;;;;;;;;;;;9.66;31.75;100810.28;5091504;28;19920;-62
2023/05/02 06:05:07;;;;;;;;;;;;;;;9.83;31.47;100809.13;5091424;28;19994;-63
2023/05/02 06:07:32;;;;;;;;;;;;;;;9.89;31.31;100804.88;5091666;28;19945;-63
2023/05/02 06:09:58;;;;;;;;;;;;;;;10.01;32.50;100807.97;5091403;28;19912;-63
2023/05/02 06:12:23;;;;;;;;;;;;;;;10.00;32.20;100809.00;5091242;28;19920;-63
2023/05/02 06:14:48;;;;;;;;;;;;;;;10.09;31.90;100818.63;5091296;28;19927;-63
2023/05/02 06:17:14;;;;;;;;;;;;;;;10.11;32.40;100821.97;5091243;28;19958;-62
2023/05/02 06:19:39;;;;;;;;;;;;;;;10.13;32.43;100822.63;5091368;28;19934;-64
2023/05/02 06:22:05;;;;;;;;;;;;;;;10.18;32.41;100830.97;5091168;28;19927;-64
2023/05/02 06:24:30;;;;;;;;;;;;;;;10.36;32.56;100825.25;5090997;28;19923;-63
2023/05/02 06:26:55;;;;;;;;;;;;;;;10.33;32.53;100835.56;5091191;28;19938;-62
2023/05/02 06:29:20;;;;;;;;;;;;;;;10.35;32.40;100822.78;5093648;28;19920;-63
2023/05/02 06:31:46;;;;;;;;;;;;;;;10.36;32.30;100822.56;5095157;28;19924;-63
2023/05/02 06:34:11;;;;;;;;;;;;;;;10.37;31.91;100826.13;5094356;28;19961;-63
2023/05/02 06:36:36;;;;;;;;;;;;;;;10.41;31.94;100822.03;5094367;28;19911;-62
2023/05/02 06:39:01;;;;;;;;;;;;;;;10.42;31.92;100827.22;5094996;28;20088;-63
2023/05/02 06:41:27;;;;;;;;;;;;;;;10.57;31.75;100832.63;5094737;28;19916;-64
2023/05/02 06:43:52;;;;;;;;;;;;;;;10.66;31.96;100833.38;5094913;28;19916;-64
2023/05/02 06:46:19;;;;;;;;;;;;;;;10.73;32.07;100836.97;5094878;28;20078;-64
2023/05/02 06:48:45;;;;;;;;;;;;;;;10.69;32.08;100838.34;5094376;28;19971;-64
2023/05/02 06:51:10;;;;;;;;;;;;;;;10.69;32.10;100846.41;5094856;28;20167;-63
2023/05/02 06:53:36;;;;;;;;;;;;;;;10.71;31.84;100848.91;5094735;28;19969;-63
2023/05/02 06:56:02;;;;;;;;;;;;;;;10.76;31.88;100857.25;5093927;28;19916;-63
2023/05/02 06:58:28;;;;;;;;;;;;;;;10.68;32.57;100852.81;5094502;28;19983;-64
2023/05/02 07:00:54;;;;;;;;;;;;;;;10.79;32.43;100857.72;5094594;28;20557;-63
2023/05/02 07:03:19;;;;;;;;;;;;;;;10.81;32.69;100853.00;5094331;28;19912;-63
2023/05/02 07:05:44;;;;;;;;;;;;;;;10.80;32.75;100854.00;5094446;28;20387;-63
2023/05/02 07:08:10;;;;;;;;;;;;;;;10.98;33.03;100860.88;5094242;28;19912;-64
2023/05/02 07:10:36;;;;;;;;;;;;;;;10.99;32.40;100859.84;5094312;28;19998;-63
2023/05/02 07:13:01;;;;;;;;;;;;;;;10.94;31.90;100867.63;5093555;28;20023;-64
2023/05/02 07:15:27;;;;;;;;;;;;;;;10.92;32.23;100883.94;5093740;28;19912;-63
2023/05/02 07:17:52;;;;;;;;;;;;;;;10.77;32.12;100875.88;5093840;28;19912;-63
2023/05/02 07:20:18;;;;;;;;;;;;;;;10.85;32.73;100883.03;5093663;28;19912;-63
2023/05/02 07:22:44;;;;;;;;;;;;;;;10.90;31.49;100880.63;5092335;28;19963;-63
2023/05/02 07:25:09;;;;;;;;;;;;;;;11.01;32.03;100877.47;5093721;28;19951;-63
2023/05/02 07:27:34;;;;;;;;;;;;;;;11.04;31.81;100882.44;5093952;28;19912;-63
2023/05/02 07:30:00;;;;;;;;;;;;;;;11.10;31.45;100883.56;5093953;28;19962;-63
2023/05/02 07:32:25;;;;;;;;;;;;;;;11.24;31.79;100881.88;5094690;28;19912;-63
2023/05/02 07:34:54;;;;;;;;;;;;;;;11.13;30.99;100885.06;5098248;28;19924;-63
2023/05/02 07:37:20;;;;;;;;;;;;;;;11.34;31.58;100879.72;5093289;28;19931;-63
2023/05/02 07:39:45;;;;;;;;;;;;;;;11.35;30.83;100883.25;5092586;28;19923;-64
2023/05/02 07:42:10;;;;;;;;;;;;;;;11.40;30.58;100889.75;5093506;28;19931;-64
2023/05/02 07:44:36;;;;;;;;;;;;;;;11.38;30.82;100883.69;5092916;28;19938;-63
2023/05/02 07:47:01;;;;;;;;;;;;;;;11.54;30.71;100887.19;5094100;28;19924;-63
2023/05/02 07:49:27;;;;;;;;;;;;;;;11.67;30.91;100884.66;5095193;28;19916;-64
2023/05/02 07:51:52;;;;;;;;;;;;;;;11.70;30.66;100886.13;5093736;28;19916;-64
2023/05/02 07:54:18;;;;;;;;;;;;;;;11.55;30.72;100900.47;5093320;28;19912;-64
2023/05/02 07:56:43;;;;;;;;;;;;;;;11.58;31.00;100904.63;5092893;28;19919;-64
2023/05/02 07:59:08;;;;;;;;;;;;;;;11.50;30.93;100900.19;5093331;28;19995;-63
2023/05/02 08:01:34;;;;;;;;;;;;;;;11.52;31.58;100900.84;5092891;28;19920;-62
2023/05/02 08:03:59;;;;;;;;;;;;;;;11.61;31.46;100898.88;5092833;28;19912;-63
2023/05/02 08:06:25;;;;;;;;;;;;;;;11.71;30.46;100899.38;5092944;28;19965;-63
2023/05/02 08:08:50;;;;;;;;;;;;;;;11.86;31.20;100896.63;5093096;28;19969;-63
2023/05/02 08:11:16;;;;;;;;;;;;;;;11.95;31.18;100903.59;5092887;28;20372;-62
2023/05/02 08:13:41;;;;;;;;;;;;;;;12.01;31.47;100902.00;5093411;28;19972;-64
2023/05/02 08:16:07;;;;;;;;;;;;;;;11.90;30.50;100886.34;5092921;28;19919;-63
2023/05/02 08:18:33;;;;;;;;;;;;;;;12.11;30.29;100901.66;5093087;28;19980;-64
2023/05/02 08:20:58;;;;;;;;;;;;;;;12.27;30.92;100898.72;5093066;28;19919;-64
2023/05/02 08:23:23;;;;;;;;;;;;;;;12.22;29.98;100898.47;5093139;28;19920;-63
2023/05/02 08:25:48;;;;;;;;;;;;;;;12.29;30.21;100904.72;5092921;28;20006;-65
2023/05/02 08:28:14;;;;;;;;;;;;;;;12.43;30.94;100905.69;5091739;28;19961;-64
2023/05/02 08:30:39;;;;;;;;;;;;;;;12.62;30.21;100906.03;5093203;28;19916;-64
2023/05/02 08:33:05;;;;;;;;;;;;;;;12.68;29.83;100903.38;5092753;28;20292;-64
2023/05/02 08:35:30;;;;;;;;;;;;;;;12.68;29.48;100903.38;5092922;28;19923;-64
2023/05/02 08:37:55;;;;;;;;;;;;;;;12.76;29.16;100903.25;5091892;28;19974;-64
2023/05/02 08:40:21;;;;;;;;;;;;;;;12.90;29.54;100908.72;5091442;28;19920;-64
2023/05/02 08:42:46;;;;;;;;;;;;;;;13.01;29.65;100900.06;5092109;28;19920;-64
2023/05/02 08:45:12;;;;;;;;;;;;;;;12.96;29.07;100905.22;5092225;28;19912;-63
2023/05/02 08:47:39;;;;;;;;;;;;;;;13.11;29.15;100911.34;5092480;28;19999;-64
2023/05/02 08:50:05;;;;;;;;;;;;;;;13.17;29.58;100907.00;5092121;28;20018;-63
2023/05/02 08:52:31;;;;;;;;;;;;;;;13.07;29.42;100904.66;5092271;28;19915;-64
2023/05/02 08:54:57;;;;;;;;;;;;;;;13.22;29.46;100904.50;5091854;28;20011;-65
2023/05/02 08:57:22;;;;;;;;;;;;;;;13.53;29.06;100903.22;5092118;28;20010;-64
2023/05/02 08:59:48;;;;;;;;;;;;;;;13.54;28.57;100904.91;5092210;28;19912;-64
2023/05/02 09:02:22;;;;;;;;;;;;;;;13.65;28.63;100912.41;5092001;28;19920;-64
2023/05/02 09:04:51;;;;;;;;;;;;;;;13.67;28.90;100917.59;5092248;28;20351;-64
2023/05/02 09:07:16;;;;;;;;;;;;;;;13.82;28.96;100917.44;5091487;28;20360;-63
2023/05/02 09:09:41;;;;;;;;;;;;;;;13.97;28.22;100919.94;5092090;28;20012;-64
2023/05/02 09:12:07;;;;;;;;;;;;;;;13.98;27.73;100919.75;5091905;28;19912;-64
2023/05/02 09:14:33;;;;;;;;;;;;;;;13.97;27.69;100915.41;5090768;28;19959;-64
2023/05/02 09:16:59;;;;;;;;;;;;;;;14.03;27.53;100919.97;5091760;28;19947;-65
2023/05/02 09:19:25;;;;;;;;;;;;;;;14.16;27.56;100921.03;5092074;28;19912;-65
2023/05/02 09:21:50;;;;;;;;;;;;;;;14.15;27.67;100922.88;5092072;28;19916;-64
2023/05/02 09:24:17;;;;;;;;;;;;;;;14.12;27.35;100921.44;5091784;28;20355;-64
2023/05/02 09:26:55;;;;;;;;;;;;;;;14.33;27.32;100916.88;5091234;28;20418;-65
2023/05/02 09:29:20;;;;;;;;;;;;;;;14.42;27.01;100925.63;5091520;28;20004;-65
2023/05/02 09:31:46;;;;;;;;;;;;;;;14.21;27.09;100921.22;5091746;28;19991;-65
2023/05/02 09:34:12;;;;;;;;;;;;;;;14.44;27.45;100910.03;5091686;28;20317;-64
2023/05/02 09:36:41;;;;;;;;;;;;;;;14.62;27.13;100909.44;5090483;28;19912;-63
2023/05/02 09:39:09;;;;;;;;;;;;;;;14.69;26.39;100902.97;5090288;28;20353;-64
2023/05/02 09:41:44;;;;;;;;;;;;;;;14.77;26.46;100903.81;5091775;28;19916;-65
2023/05/02 09:44:11;;;;;;;;;;;;;;;14.96;26.41;100908.31;5091664;28;20010;-64
2023/05/02 09:46:40;;;;;;;;;;;;;;;15.04;25.78;100907.25;5091768;28;19916;-64
2023/05/02 09:49:06;;;;;;;;;;;;;;;14.98;26.05;100906.25;5091854;28;20348;-64
2023/05/02 09:51:32;;;;;;;;;;;;;;;15.15;25.76;100908.50;5091928;28;19920;-64
2023/05/02 09:53:57;;;;;;;;;;;;;;;15.35;26.92;100901.13;5091323;28;19961;-65
2023/05/02 09:56:22;;;;;;;;;;;;;;;15.68;25.99;100900.97;5090157;28;19965;-64
2023/05/02 09:58:47;;;;;;;;;;;;;;;15.81;25.97;100902.00;5091259;28;19939;-65
2023/05/02 10:01:14;;;;;;;;;;;;;;;15.95;26.49;100903.53;5091394;28;19924;-65
2023/05/02 10:03:40;;;;;;;;;;;;;;;16.19;26.05;100901.91;5092538;28;19912;-65
2023/05/02 10:06:07;;;;;;;;;;;;;;;15.95;24.84;100906.25;5095545;28;19919;-64
2023/05/02 10:08:32;;;;;;;;;;;;;;;15.93;24.87;100919.19;5095459;28;19938;-63
2023/05/02 10:10:59;;;;;;;;;;;;;;;16.31;24.81;100914.78;5095865;28;19912;-64
2023/05/02 10:13:26;;;;;;;;;;;;;;;16.41;24.84;100915.09;5095451;28;19920;-64
2023/05/02 10:15:59;;;;;;;;;;;;;;;16.87;25.04;100919.31;5094700;28;19973;-65
2023/05/02 10:18:32;;;;;;;;;;;;;;;17.12;25.21;100912.97;5094026;28;20011;-65
2023/05/02 10:21:04;;;;;;;;;;;;;;;17.52;26.25;100913.34;5095726;28;19920;-65
2023/05/02 10:23:29;;;;;;;;;;;;;;;17.69;24.47;100899.13;5093897;28;19919;-64
2023/05/02 10:25:56;;;;;;;;;;;;;;;17.84;23.93;100909.56;5095593;28;19912;-64
2023/05/02 10:28:22;;;;;;;;;;;;;;;18.18;23.98;100902.59;5094632;28;19920;-65
2023/05/02 10:30:49;;;;;;;;;;;;;;;18.50;22.74;100900.41;5095170;28;19918;-64
2023/05/02 10:33:15;;;;;;;;;;;;;;;18.82;21.85;100908.25;5093783;28;19912;-64
2023/05/02 10:35:46;;;;;;;;;;;;;;;19.02;21.76;100902.44;5095073;28;19923;-65
2023/05/02 10:38:12;;;;;;;;;;;;;;;18.69;21.42;100906.56;5094476;28;19922;-64
2023/05/02 10:40:39;;;;;;;;;;;;;;;18.25;22.26;100907.94;5094976;28;19919;-64
2023/05/02 10:43:05;;;;;;;;;;;;;;;18.39;21.57;100909.38;5095055;28;19976;-63
2023/05/02 10:45:36;;;;;;;;;;;;;;;19.02;21.25;100907.03;5094749;28;19916;-65
2023/05/02 10:48:15;;;;;;;;;;;;;;;19.23;20.87;100902.88;5094336;28;19920;-65
2023/05/02 10:50:46;;;;;;;;;;;;;;;19.80;21.05;100896.63;5095052;28;19919;-64
2023/05/02 10:53:20;;;;;;;;;;;;;;;19.88;21.02;100904.44;5093332;28;19920;-64
2023/05/02 10:56:06;;;;;;;;;;;;;;;20.27;22.62;100901.81;5094695;28;19957;-64
2023/05/02 10:58:31;;;;;;;;;;;;;;;20.68;19.45;100914.22;5094179;28;19920;-65
2023/05/02 11:01:16;;;;;;;;;;;;;;;20.27;18.97;100915.47;5093406;28;19921;-65
2023/05/02 11:03:58;;;;;;;;;;;;;;;20.17;20.09;100921.59;5093763;28;19981;-65
2023/05/02 11:06:25;;;;;;;;;;;;;;;20.37;19.94;100925.72;5094091;28;19912;-65
2023/05/02 11:08:50;;;;;;;;;;;;;;;20.60;19.81;100924.72;5094244;28;19962;-64
2023/05/02 11:11:34;;;;;;;;;;;;;;;20.48;20.02;100936.53;5094295;28;19959;-64
2023/05/02 11:13:59;;;;;;;;;;;;;;;20.16;19.63;100916.38;5093953;28;20381;-63
2023/05/02 11:16:24;;;;;;;;;;;;;;;19.85;19.05;100922.06;5094125;28;19912;-64
2023/05/02 11:18:59;;;;;;;;;;;;;;;19.82;20.01;100922.59;5094193;28;19973;-64
2023/05/02 11:21:28;;;;;;;;;;;;;;;19.97;19.44;100921.22;5094194;28;20368;-64
2023/05/02 11:24:13;;;;;;;;;;;;;;;20.35;19.53;100920.50;5092376;28;20341;-65
2023/05/02 11:26:38;;;;;;;;;;;;;;;20.13;19.66;100928.56;5094140;28;19962;-64
2023/05/02 11:29:11;;;;;;;;;;;;;;;20.22;19.34;100924.38;5093952;28;19916;-64
2023/05/02 11:31:38;;;;;;;;;;;;;;;20.17;19.74;100923.47;5093148;28;19916;-64
2023/05/02 11:34:03;;;;;;;;;;;;;;;20.19;22.42;100922.16;5094038;28;20002;-64
2023/05/02 11:36:33;;;;;;;;;;;;;;;19.99;19.31;100927.25;5092984;28;19991;-65
2023/05/02 11:39:04;;;;;;;;;;;;;;;19.78;19.47;100917.84;5093014;28;19913;-64
2023/05/02 11:41:39;;;;;;;;;;;;;;;19.77;19.42;100930.66;5091967;28;19961;-64
2023/05/02 11:44:04;;;;;;;;;;;;;;;19.81;19.09;100925.56;5093995;28;19996;-64
2023/05/02 11:46:30;;;;;;;;;;;;;;;20.24;19.50;100918.69;5093683;28;19912;-64
2023/05/02 11:48:55;;;;;;;;;;;;;;;20.24;19.03;100927.69;5093249;28;19965;-64
2023/05/02 11:51:23;;;;;;;;;;;;;;;20.24;19.93;100924.13;5093482;28;19916;-64
2023/05/02 11:53:49;;;;;;;;;;;;;;;20.68;18.77;100918.88;5092976;28;19927;-65
2023/05/02 11:56:15;;;;;;;;;;;;;;;20.91;18.58;100911.53;5093415;28;19912;-64
2023/05/02 11:58:40;;;;;;;;;;;;;;;20.90;18.70;100910.72;5092007;28;19934;-65
2023/05/02 12:01:16;;;;;;;;;;;;;;;20.85;19.73;100925.13;5093567;28;20030;-64
2023/05/02 12:03:41;;;;;;;;;;;;;;;20.49;18.82;100926.47;5093396;28;20005;-64
2023/05/02 12:06:10;;;;;;;;;;;;;;;20.45;19.56;100914.41;5093515;28;20262;-65
2023/05/02 12:08:36;;;;;;;;;;;;;;;20.22;21.23;100923.56;5092237;28;20364;-64
2023/05/02 12:11:02;;;;;;;;;;;;;;;20.31;19.99;100922.06;5093308;28;19912;-64
2023/05/02 12:13:28;;;;;;;;;;;;;;;20.23;20.02;100928.75;5093265;28;19960;-64
2023/05/02 12:15:54;;;;;;;;;;;;;;;20.20;19.35;100940.16;5093508;28;20064;-64
2023/05/02 12:18:22;;;;;;;;;;;;;;;21.03;19.28;100936.84;5093284;28;19945;-64
2023/05/02 12:20:48;;;;;;;;;;;;;;;21.83;19.51;100937.31;5092544;28;20272;-65
2023/05/02 12:23:13;;;;;;;;;;;;;;;22.47;18.15;100928.34;5091687;28;19916;-65
2023/05/02 12:25:42;;;;;;;;;;;;;;;23.21;18.19;100917.59;5092316;28;19912;-65
2023/05/02 12:28:09;;;;;;;;;;;;;;;24.05;17.96;100913.75;5092534;28;19964;-66
2023/05/02 12:30:37;;;;;;;;;;;;;;;24.64;17.04;100914.31;5093158;28;19916;-65
2023/05/02 12:33:03;;;;;;;;;;;;;;;24.90;16.70;100918.63;5092988;28;20070;-66
2023/05/02 12:35:29;;;;;;;;;;;;;;;24.69;15.98;100928.03;5093130;28;20573;-66
2023/05/02 12:37:55;;;;;;;;;;;;;;;24.67;16.27;100930.25;5092014;28;19947;-66
2023/05/02 12:40:20;;;;;;;;;;;;;;;25.29;17.33;100934.50;5092942;28;19912;-65